SWR4MK EDDS-EDDM
Flight info
| Callsign | SWR4MK |
|---|---|
| Flight time | 0h 24m |
| Altitude | 15000 |
| Route | ABTAL4H/07 ABTAL L173 RIXED Y161 RIDAR Z98 WLD T104 ROKIL ROKIL1A |
| Aircraft | A320/M-SDE3FGHIRWY/LB1 |
Departure
| Time | 2026-04-30 19:39 |
|---|---|
| Airport | Stuttgart Airport (EDDS) |
Arrival
| Time | 2026-04-30 20:04 |
|---|---|
| Airport | Munich Airport (EDDM) |
| Time | Latitude | Longitude | Altitude | Speed | Heading |
|---|---|---|---|---|---|
| 2026-04-30 19:22 | 48.68870 | 9.19288 | 1316 ft | 0 kts | 344° |
| 2026-04-30 19:31 | 48.68866 | 9.19290 | 1315 ft | 3 kts | 344° |
| 2026-04-30 19:32 | 48.68840 | 9.19301 | 1315 ft | 4 kts | 344° |
| 2026-04-30 19:32 | 48.68819 | 9.19310 | 1315 ft | 4 kts | 354° |
| 2026-04-30 19:32 | 48.68796 | 9.19303 | 1314 ft | 4 kts | 50° |
| 2026-04-30 19:32 | 48.68787 | 9.19277 | 1315 ft | 0 kts | 74° |
| 2026-04-30 19:35 | 48.68790 | 9.19292 | 1314 ft | 4 kts | 74° |
| 2026-04-30 19:35 | 48.68799 | 9.19345 | 1314 ft | 6 kts | 75° |
| 2026-04-30 19:35 | 48.68815 | 9.19429 | 1313 ft | 10 kts | 74° |
| 2026-04-30 19:36 | 48.68837 | 9.19550 | 1310 ft | 14 kts | 75° |
| 2026-04-30 19:36 | 48.68867 | 9.19705 | 1307 ft | 17 kts | 73° |
| 2026-04-30 19:36 | 48.68815 | 9.19914 | 1297 ft | 11 kts | 146° |
| 2026-04-30 19:37 | 48.68744 | 9.19955 | 1292 ft | 11 kts | 160° |
| 2026-04-30 19:37 | 48.68690 | 9.19984 | 1289 ft | 1 kts | 161° |
| 2026-04-30 19:37 | 48.68683 | 9.19987 | 1289 ft | 0 kts | 163° |
| 2026-04-30 19:37 | 48.68668 | 9.19994 | 1288 ft | 4 kts | 163° |
| 2026-04-30 19:38 | 48.68620 | 9.20016 | 1285 ft | 10 kts | 163° |
| 2026-04-30 19:38 | 48.68583 | 9.20079 | 1283 ft | 10 kts | 75° |
| 2026-04-30 19:38 | 48.68612 | 9.20225 | 1279 ft | 27 kts | 75° |
| 2026-04-30 19:38 | 48.68736 | 9.20872 | 1270 ft | 98 kts | 74° |
| 2026-04-30 19:39 | 48.68979 | 9.22154 | 1251 ft | 152 kts | 74° |
| 2026-04-30 19:39 | 48.69254 | 9.23746 | 1832 ft | 154 kts | 76° |
| 2026-04-30 19:39 | 48.69540 | 9.25325 | 2586 ft | 155 kts | 76° |
| 2026-04-30 19:39 | 48.69849 | 9.26897 | 3254 ft | 159 kts | 77° |
| 2026-04-30 19:40 | 48.70175 | 9.28594 | 3586 ft | 180 kts | 78° |
| 2026-04-30 19:40 | 48.70547 | 9.30539 | 3894 ft | 205 kts | 77° |
| 2026-04-30 19:40 | 48.70971 | 9.32729 | 4298 ft | 229 kts | 76° |
| 2026-04-30 19:40 | 48.71434 | 9.35120 | 4945 ft | 243 kts | 77° |
| 2026-04-30 19:41 | 48.71908 | 9.37610 | 5735 ft | 249 kts | 76° |
| 2026-04-30 19:41 | 48.72392 | 9.40169 | 6569 ft | 255 kts | 75° |
| 2026-04-30 19:41 | 48.72887 | 9.42786 | 7367 ft | 261 kts | 75° |
| 2026-04-30 19:41 | 48.73389 | 9.45449 | 8207 ft | 265 kts | 75° |
| 2026-04-30 19:42 | 48.73898 | 9.48149 | 9063 ft | 268 kts | 75° |
| 2026-04-30 19:42 | 48.74399 | 9.50897 | 9917 ft | 272 kts | 79° |
| 2026-04-30 19:42 | 48.74432 | 9.53769 | 10661 ft | 277 kts | 101° |
| 2026-04-30 19:42 | 48.73894 | 9.56683 | 10986 ft | 300 kts | 106° |
| 2026-04-30 19:43 | 48.73222 | 9.59809 | 11211 ft | 323 kts | 107° |
| 2026-04-30 19:43 | 48.72472 | 9.63145 | 11383 ft | 346 kts | 107° |
| 2026-04-30 19:43 | 48.71672 | 9.66639 | 11883 ft | 355 kts | 107° |
| 2026-04-30 19:44 | 48.70046 | 9.73795 | 13240 ft | 363 kts | 106° |
| 2026-04-30 19:44 | 48.69232 | 9.77429 | 13908 ft | 367 kts | 106° |
| 2026-04-30 19:44 | 48.68409 | 9.81111 | 14522 ft | 371 kts | 106° |
| 2026-04-30 19:44 | 48.67584 | 9.84827 | 15069 ft | 375 kts | 106° |
| 2026-04-30 19:45 | 48.66783 | 9.88591 | 15274 ft | 376 kts | 105° |
| 2026-04-30 19:45 | 48.65995 | 9.92357 | 15325 ft | 376 kts | 105° |
| 2026-04-30 19:45 | 48.65193 | 9.96151 | 15337 ft | 386 kts | 105° |
| 2026-04-30 19:45 | 48.64322 | 10.00087 | 15333 ft | 401 kts | 107° |
| 2026-04-30 19:46 | 48.63406 | 10.04093 | 15341 ft | 405 kts | 107° |
| 2026-04-30 19:46 | 48.62472 | 10.08122 | 15331 ft | 406 kts | 107° |
| 2026-04-30 19:46 | 48.61539 | 10.12149 | 15347 ft | 404 kts | 107° |
| 2026-04-30 19:46 | 48.60647 | 10.16005 | 15343 ft | 384 kts | 107° |
| 2026-04-30 19:47 | 48.59781 | 10.19754 | 15344 ft | 365 kts | 106° |
| 2026-04-30 19:47 | 48.59237 | 10.22121 | 15346 ft | 353 kts | 106° |
| 2026-04-30 19:47 | 48.58195 | 10.26682 | 15347 ft | 337 kts | 106° |
| 2026-04-30 19:47 | 48.57448 | 10.29971 | 15352 ft | 335 kts | 106° |
| 2026-04-30 19:48 | 48.56693 | 10.33293 | 15353 ft | 334 kts | 106° |
| 2026-04-30 19:48 | 48.55938 | 10.36611 | 15352 ft | 334 kts | 106° |
| 2026-04-30 19:48 | 48.55183 | 10.39926 | 15353 ft | 334 kts | 106° |
| 2026-04-30 19:48 | 48.54424 | 10.43247 | 15353 ft | 334 kts | 106° |
| 2026-04-30 19:49 | 48.53652 | 10.46599 | 15359 ft | 333 kts | 106° |
| 2026-04-30 19:49 | 48.52142 | 10.53142 | 14823 ft | 331 kts | 106° |
| 2026-04-30 19:49 | 48.51375 | 10.56463 | 14433 ft | 329 kts | 106° |
| 2026-04-30 19:50 | 48.50624 | 10.59713 | 14047 ft | 327 kts | 106° |
| 2026-04-30 19:50 | 48.49875 | 10.62937 | 13553 ft | 324 kts | 107° |
| 2026-04-30 19:50 | 48.49130 | 10.66129 | 13005 ft | 321 kts | 107° |
| 2026-04-30 19:50 | 48.48392 | 10.69287 | 12459 ft | 318 kts | 107° |
| 2026-04-30 19:51 | 48.47661 | 10.72421 | 11931 ft | 315 kts | 107° |
| 2026-04-30 19:51 | 48.46946 | 10.75482 | 11415 ft | 312 kts | 107° |
| 2026-04-30 19:51 | 48.46218 | 10.78595 | 10885 ft | 310 kts | 107° |
| 2026-04-30 19:51 | 48.45508 | 10.81641 | 10375 ft | 307 kts | 107° |
| 2026-04-30 19:52 | 48.44802 | 10.84666 | 9908 ft | 302 kts | 107° |
| 2026-04-30 19:52 | 48.44116 | 10.87590 | 9362 ft | 296 kts | 108° |
| 2026-04-30 19:52 | 48.43442 | 10.90458 | 8819 ft | 286 kts | 108° |
| 2026-04-30 19:52 | 48.42787 | 10.93241 | 8284 ft | 277 kts | 108° |
| 2026-04-30 19:53 | 48.42155 | 10.95923 | 7760 ft | 269 kts | 108° |
| 2026-04-30 19:53 | 48.41538 | 10.98540 | 7242 ft | 263 kts | 108° |
| 2026-04-30 19:53 | 48.40928 | 11.01116 | 6733 ft | 259 kts | 109° |
| 2026-04-30 19:53 | 48.40327 | 11.03653 | 6210 ft | 255 kts | 108° |
| 2026-04-30 19:54 | 48.39737 | 11.06147 | 5695 ft | 250 kts | 108° |
| 2026-04-30 19:54 | 48.39159 | 11.08586 | 5193 ft | 245 kts | 108° |
| 2026-04-30 19:54 | 48.38595 | 11.10961 | 4984 ft | 240 kts | 108° |
| 2026-04-30 19:54 | 48.38033 | 11.13331 | 4983 ft | 241 kts | 108° |
| 2026-04-30 19:55 | 48.37470 | 11.15708 | 4981 ft | 242 kts | 108° |
| 2026-04-30 19:55 | 48.36905 | 11.18094 | 4984 ft | 242 kts | 108° |
| 2026-04-30 19:55 | 48.36339 | 11.20483 | 4983 ft | 242 kts | 108° |
| 2026-04-30 19:55 | 48.35773 | 11.22860 | 4983 ft | 241 kts | 108° |
| 2026-04-30 19:56 | 48.35204 | 11.25240 | 4980 ft | 242 kts | 108° |
| 2026-04-30 19:56 | 48.34645 | 11.27568 | 4979 ft | 233 kts | 108° |
| 2026-04-30 19:56 | 48.34098 | 11.29842 | 4982 ft | 231 kts | 108° |
| 2026-04-30 19:56 | 48.33552 | 11.32121 | 4983 ft | 232 kts | 108° |
| 2026-04-30 19:57 | 48.33047 | 11.34425 | 4982 ft | 231 kts | 98° |
| 2026-04-30 19:57 | 48.33080 | 11.36776 | 4981 ft | 218 kts | 83° |
| 2026-04-30 19:57 | 48.33274 | 11.38990 | 4994 ft | 211 kts | 83° |
| 2026-04-30 19:57 | 48.33459 | 11.41174 | 4997 ft | 210 kts | 84° |
| 2026-04-30 19:58 | 48.33625 | 11.43215 | 4985 ft | 181 kts | 84° |
| 2026-04-30 19:58 | 48.33770 | 11.45012 | 5018 ft | 169 kts | 84° |
| 2026-04-30 19:58 | 48.33907 | 11.46726 | 5043 ft | 163 kts | 84° |
| 2026-04-30 19:58 | 48.34042 | 11.48415 | 5014 ft | 163 kts | 84° |
| 2026-04-30 19:59 | 48.34177 | 11.50100 | 4964 ft | 162 kts | 84° |
| 2026-04-30 19:59 | 48.34311 | 11.51781 | 4805 ft | 161 kts | 84° |
| 2026-04-30 19:59 | 48.34576 | 11.55104 | 4399 ft | 159 kts | 84° |
| 2026-04-30 20:00 | 48.34706 | 11.56750 | 4186 ft | 159 kts | 85° |
| 2026-04-30 20:00 | 48.34837 | 11.58397 | 3977 ft | 158 kts | 84° |
| 2026-04-30 20:00 | 48.34966 | 11.60034 | 3765 ft | 157 kts | 84° |
| 2026-04-30 20:00 | 48.35095 | 11.61659 | 3554 ft | 156 kts | 84° |
| 2026-04-30 20:01 | 48.35348 | 11.64882 | 3132 ft | 155 kts | 85° |
| 2026-04-30 20:01 | 48.35472 | 11.66453 | 2921 ft | 144 kts | 85° |
| 2026-04-30 20:01 | 48.35587 | 11.67915 | 2735 ft | 138 kts | 85° |
| 2026-04-30 20:02 | 48.35813 | 11.70772 | 2308 ft | 139 kts | 85° |
| 2026-04-30 20:02 | 48.35917 | 11.72241 | 2130 ft | 145 kts | 83° |
| 2026-04-30 20:03 | 48.36152 | 11.75242 | 1705 ft | 140 kts | 84° |
| 2026-04-30 20:03 | 48.36272 | 11.76707 | 1538 ft | 142 kts | 83° |
| 2026-04-30 20:03 | 48.36378 | 11.78099 | 1476 ft | 118 kts | 83° |
| 2026-04-30 20:03 | 48.36452 | 11.79036 | 1475 ft | 56 kts | 84° |
| 2026-04-30 20:04 | 48.36379 | 11.79514 | 1478 ft | 35 kts | 115° |
| 2026-04-30 20:04 | 48.36310 | 11.79746 | 1483 ft | 0 kts | 113° |
| 2026-04-30 20:04 | 48.36310 | 11.79747 | 1483 ft | 2 kts | 113° |
| 2026-04-30 20:05 | 48.36227 | 11.79646 | 1485 ft | 15 kts | 261° |
| 2026-04-30 20:05 | 48.36213 | 11.79502 | 1485 ft | 13 kts | 251° |
| 2026-04-30 20:05 | 48.36081 | 11.79483 | 1485 ft | 8 kts | 173° |
| 2026-04-30 20:06 | 48.36028 | 11.79490 | 1485 ft | 7 kts | 173° |
| 2026-04-30 20:06 | 48.35985 | 11.79498 | 1478 ft | 7 kts | 173° |
| 2026-04-30 20:06 | 48.35892 | 11.79514 | 1474 ft | 20 kts | 173° |
| 2026-04-30 20:06 | 48.35802 | 11.79665 | 1483 ft | 24 kts | 79° |
| 2026-04-30 20:07 | 48.35822 | 11.79920 | 1481 ft | 25 kts | 83° |
| 2026-04-30 20:07 | 48.35776 | 11.80064 | 1483 ft | 10 kts | 170° |
| 2026-04-30 20:07 | 48.35747 | 11.79962 | 1485 ft | 1 kts | 263° |
| 2026-04-30 20:08 | 48.35747 | 11.79960 | 1485 ft | 0 kts | 263° |
| 2026-04-30 20:08 | 48.35746 | 11.79955 | 1485 ft | 3 kts | 263° |
| 2026-04-30 20:08 | 48.35744 | 11.79932 | 1482 ft | 2 kts | 264° |
| 2026-04-30 20:08 | 48.35744 | 11.79924 | 1485 ft | 0 kts | 263° |